Time;durP1;ratioP1;P1;durP2;ratioP2;P2;SDS_P1;SDS_P2;PMS_P1;PMS_P2;Temp;Humidity;BMP_temperature;BMP_pressure;BME280_temperature;BME280_humidity;BME280_pressure;Samples;Min_cycle;Max_cycle;Signal;HPM_P1;HPM_P2
2021/09/18 00:00:07;;;;;;;11.23;10.53;;;11.00;99.90;;;;;;4978475;28;20639;-94
2021/09/18 00:02:34;;;;;;;10.93;10.03;;;10.90;99.90;;;;;;4992799;28;20952;-95
2021/09/18 00:05:11;;;;;;;12.00;10.80;;;10.90;99.90;;;;;;4991348;28;20729;-96
2021/09/18 00:07:38;;;;;;;11.90;11.00;;;10.90;99.90;;;;;;4989055;28;20692;-95
2021/09/18 00:10:06;;;;;;;12.20;11.20;;;11.00;99.90;;;;;;4989982;28;20652;-96
2021/09/18 00:12:33;;;;;;;11.70;10.50;;;11.00;99.90;;;;;;4994158;28;20752;-96
2021/09/18 00:15:02;;;;;;;11.30;10.57;;;11.00;99.90;;;;;;4988204;28;20748;-95
2021/09/18 00:17:41;;;;;;;11.03;10.33;;;11.00;99.90;;;;;;5000718;28;20648;-95
2021/09/18 00:20:13;;;;;;;12.40;11.60;;;11.00;99.90;;;;;;5000229;28;20609;-96
2021/09/18 00:22:46;;;;;;;13.10;12.20;;;10.90;99.90;;;;;;5017957;28;20649;-96
2021/09/18 00:25:20;;;;;;;12.00;11.23;;;10.90;99.90;;;;;;5011408;28;20628;-96
2021/09/18 00:30:50;;;;;;;11.80;11.03;;;10.90;99.90;;;;;;4998242;28;20644;-96
2021/09/18 00:33:18;;;;;;;11.87;11.07;;;10.90;99.90;;;;;;4990903;28;20736;-96
2021/09/18 00:35:45;;;;;;;11.70;10.80;;;10.80;99.90;;;;;;4985329;28;20661;-95
2021/09/18 00:38:12;;;;;;;11.00;10.13;;;10.80;99.90;;;;;;4989236;28;20633;-96
2021/09/18 00:40:40;;;;;;;11.20;10.30;;;10.70;99.90;;;;;;4983837;28;20651;-96
2021/09/18 00:43:07;;;;;;;12.40;11.50;;;10.80;99.90;;;;;;5001706;28;20667;-95
2021/09/18 00:45:39;;;;;;;12.33;11.50;;;10.80;99.90;;;;;;4990485;28;20668;-96
2021/09/18 00:48:10;;;;;;;12.17;11.13;;;10.80;99.90;;;;;;5002145;28;20659;-96
2021/09/18 00:50:38;;;;;;;13.07;12.20;;;10.80;99.90;;;;;;5004446;28;21169;-96
2021/09/18 00:53:07;;;;;;;12.23;11.53;;;10.80;99.90;;;;;;4993013;28;20653;-96
2021/09/18 00:55:39;;;;;;;11.90;10.97;;;10.70;99.90;;;;;;4998085;28;20715;-96
2021/09/18 00:58:08;;;;;;;12.97;11.93;;;10.70;99.90;;;;;;5008833;28;20728;-96
2021/09/18 01:00:36;;;;;;;17.60;12.83;;;10.60;99.90;;;;;;4998718;28;20692;-96
2021/09/18 01:03:10;;;;;;;13.63;12.63;;;10.70;99.90;;;;;;5006631;28;20640;-96
2021/09/18 01:05:45;;;;;;;13.83;12.93;;;10.60;99.90;;;;;;5003292;28;20640;-96
2021/09/18 01:11:17;;;;;;;13.30;12.40;;;10.50;99.90;;;;;;4994229;28;20664;-96
2021/09/18 01:13:45;;;;;;;12.83;11.83;;;10.50;99.90;;;;;;4980235;28;20649;-96
2021/09/18 03:08:31;;;;;;;13.63;12.63;;;9.90;99.90;;;;;;5017922;28;20683;-96
2021/09/18 03:10:59;;;;;;;13.30;12.40;;;10.00;99.90;;;;;;5019983;28;21031;-95
2021/09/18 03:13:35;;;;;;;14.37;13.17;;;10.00;99.90;;;;;;5025039;28;20652;-95
2021/09/18 03:16:04;;;;;;;13.67;12.53;;;10.00;99.90;;;;;;5029228;28;20612;-95
2021/09/18 03:18:31;;;;;;;15.70;14.60;;;10.00;99.90;;;;;;5032708;28;20612;-95
2021/09/18 03:21:10;;;;;;;14.60;13.57;;;10.00;99.90;;;;;;5044092;28;20654;-95
2021/09/18 04:59:41;;;;;;;14.43;13.43;;;9.40;99.90;;;;;;4986633;28;20653;-91
2021/09/18 05:02:08;;;;;;;12.90;12.00;;;9.30;99.90;;;;;;4988147;28;20637;-91
2021/09/18 05:04:35;;;;;;;12.30;11.50;;;9.30;99.90;;;;;;4985883;28;20660;-91
2021/09/18 05:07:02;;;;;;;12.67;11.87;;;9.30;99.90;;;;;;4969734;28;21010;-91
2021/09/18 05:09:29;;;;;;;13.20;12.40;;;9.30;99.90;;;;;;4987639;28;20656;-93
2021/09/18 05:14:48;;;;;;;12.93;11.97;;;9.20;99.90;;;;;;4992462;28;20648;-93
2021/09/18 05:17:20;;;;;;;14.50;13.20;;;9.20;99.90;;;;;;4997493;28;20700;-95
2021/09/18 05:19:49;;;;;;;15.03;14.03;;;9.20;99.90;;;;;;4993212;28;20731;-94
2021/09/18 05:22:18;;;;;;;16.87;15.37;;;9.30;99.90;;;;;;5007935;28;20662;-96
2021/09/18 05:24:45;;;;;;;16.40;15.20;;;9.40;99.90;;;;;;5011590;28;20672;-96
2021/09/18 05:27:15;;;;;;;17.03;15.63;;;9.50;99.90;;;;;;4999031;28;20668;-96
2021/09/18 05:29:50;;;;;;;16.10;14.83;;;9.60;99.90;;;;;;5013612;28;20663;-94
2021/09/18 05:32:19;;;;;;;15.87;14.47;;;9.60;99.90;;;;;;5004119;28;20631;-96
2021/09/18 05:34:54;;;;;;;16.77;15.37;;;9.60;99.90;;;;;;4998290;28;20636;-95
2021/09/18 05:37:22;;;;;;;16.47;14.97;;;9.70;99.90;;;;;;5006300;28;20689;-96
2021/09/18 05:39:49;;;;;;;14.23;13.03;;;9.70;99.90;;;;;;5013562;28;20641;-96
2021/09/18 05:42:16;;;;;;;14.43;13.37;;;9.80;99.90;;;;;;5013247;28;20652;-95
2021/09/18 05:44:44;;;;;;;14.40;13.10;;;9.80;99.90;;;;;;5024445;28;20662;-95
2021/09/18 05:47:15;;;;;;;14.47;13.23;;;9.90;99.90;;;;;;5021576;28;20664;-96
2021/09/18 05:55:14;;;;;;;15.83;14.53;;;9.90;99.90;;;;;;5013443;28;20620;-95
2021/09/18 05:57:59;;;;;;;16.07;14.67;;;10.00;99.90;;;;;;5008332;28;20717;-95
2021/09/18 06:00:35;;;;;;;15.90;14.80;;;10.00;99.90;;;;;;5020314;28;20728;-96
2021/09/18 06:03:06;;;;;;;14.10;13.20;;;10.00;99.90;;;;;;5005981;28;20632;-96
2021/09/18 06:05:34;;;;;;;20.80;15.60;;;10.10;99.90;;;;;;5010618;28;20640;-96
2021/09/18 06:08:05;;;;;;;16.63;15.17;;;10.10;99.90;;;;;;5002368;28;20672;-96
2021/09/18 06:13:18;;;;;;;16.10;14.80;;;10.10;99.90;;;;;;5020992;28;20667;-96
2021/09/18 06:15:45;;;;;;;17.80;16.40;;;10.30;99.90;;;;;;5003230;28;20660;-95
2021/09/18 06:18:18;;;;;;;16.00;14.93;;;10.30;99.90;;;;;;4996157;28;20698;-95
2021/09/18 06:24:48;;;;;;;17.03;15.53;;;10.50;99.90;;;;;;4993259;28;20732;-96
2021/09/18 06:54:43;;;;;;;13.47;12.57;;;11.30;99.90;;;;;;5015332;28;20704;-94
2021/09/18 06:57:52;;;;;;;14.10;12.80;;;11.30;99.90;;;;;;5022217;28;20625;-96
2021/09/18 07:03:56;;;;;;;12.47;11.67;;;11.30;99.90;;;;;;4998874;28;20606;-96
2021/09/18 07:09:45;;;;;;;12.97;12.00;;;11.40;99.90;;;;;;4996574;28;20700;-96
2021/09/18 07:12:44;;;;;;;11.60;10.90;;;11.50;99.90;;;;;;4976408;28;20649;-96
2021/09/18 07:18:02;;;;;;;12.30;11.20;;;11.70;99.90;;;;;;4995104;28;20617;-96
2021/09/18 07:23:19;;;;;;;11.10;10.40;;;11.80;99.90;;;;;;4985943;28;20657;-94
2021/09/18 07:25:50;;;;;;;10.97;10.27;;;11.90;99.90;;;;;;4987123;28;20625;-96
2021/09/18 07:28:18;;;;;;;11.53;10.83;;;12.10;99.90;;;;;;4990665;28;20641;-96
2021/09/18 07:36:46;;;;;;;11.20;10.50;;;12.50;99.90;;;;;;5108498;23;20687;-96
2021/09/18 07:39:13;;;;;;;11.50;10.70;;;12.70;99.90;;;;;;5005063;28;20659;-93
2021/09/18 07:41:40;;;;;;;11.20;10.50;;;12.70;99.90;;;;;;5000809;28;20640;-86
2021/09/18 07:44:08;;;;;;;11.53;10.70;;;12.90;99.90;;;;;;5000629;28;20659;-87
2021/09/18 07:46:35;;;;;;;10.80;10.10;;;13.10;99.90;;;;;;4993815;28;20636;-86
2021/09/18 07:49:02;;;;;;;11.70;10.90;;;13.00;99.90;;;;;;4999025;28;20674;-88
2021/09/18 07:51:35;;;;;;;11.43;10.67;;;13.20;99.90;;;;;;4999796;28;20642;-90
2021/09/18 07:54:04;;;;;;;10.97;10.20;;;13.10;99.90;;;;;;4998093;28;20665;-90
2021/09/18 07:56:32;;;;;;;10.63;9.83;;;13.30;99.90;;;;;;4999445;28;20664;-90
2021/09/18 07:58:59;;;;;;;11.40;10.60;;;13.30;99.90;;;;;;4996618;28;20628;-90
2021/09/18 08:01:28;;;;;;;11.53;10.83;;;13.40;99.90;;;;;;4992601;28;20703;-89
2021/09/18 08:03:58;;;;;;;11.50;10.60;;;13.40;99.90;;;;;;4994575;28;20694;-90
2021/09/18 08:06:26;;;;;;;11.63;10.83;;;13.70;99.90;;;;;;4995360;28;20659;-89
2021/09/18 08:09:09;;;;;;;11.30;10.60;;;13.80;99.90;;;;;;4997976;28;20661;-90
2021/09/18 08:11:36;;;;;;;11.40;10.70;;;14.10;99.90;;;;;;4999463;28;20659;-89
2021/09/18 08:14:06;;;;;;;10.63;9.93;;;14.20;99.90;;;;;;5000009;28;20701;-89
2021/09/18 08:16:34;;;;;;;10.77;9.87;;;14.50;99.90;;;;;;4996543;28;20632;-89
2021/09/18 08:19:01;;;;;;;11.50;10.57;;;14.60;99.90;;;;;;4995466;28;21033;-89
2021/09/18 08:21:28;;;;;;;11.40;10.30;;;14.70;99.90;;;;;;4997573;28;20879;-89
2021/09/18 08:23:55;;;;;;;11.17;10.37;;;14.80;99.90;;;;;;4997851;28;20624;-88
2021/09/18 08:26:29;;;;;;;12.37;9.87;;;15.20;99.90;;;;;;4999715;28;20678;-89
2021/09/18 08:28:56;;;;;;;10.80;9.80;;;15.40;99.90;;;;;;4993727;28;20660;-89
2021/09/18 08:31:24;;;;;;;10.50;9.80;;;15.60;99.90;;;;;;4999410;28;20695;-89
2021/09/18 08:33:51;;;;;;;10.17;9.47;;;15.50;99.90;;;;;;4996110;28;20623;-89
2021/09/18 08:36:18;;;;;;;10.67;9.97;;;15.70;99.90;;;;;;4993480;28;20639;-88
2021/09/18 08:38:45;;;;;;;9.50;8.80;;;15.70;99.90;;;;;;5000523;28;20671;-88
2021/09/18 08:41:13;;;;;;;9.83;9.13;;;15.90;99.90;;;;;;4993629;28;20698;-88
2021/09/18 08:43:42;;;;;;;10.07;9.37;;;15.60;99.90;;;;;;4991305;28;21012;-88
2021/09/18 08:46:12;;;;;;;9.40;8.70;;;16.00;99.90;;;;;;4988410;28;20621;-88
2021/09/18 08:49:20;;;;;;;;;;;;;;;;;;;;;
2021/09/18 08:51:57;;;;;;;10.17;9.37;;;16.10;99.90;;;;;;4922900;29;20642;-90
2021/09/18 09:01:15;;;;;;;8.73;8.13;;;16.70;99.90;;;;;;4921952;29;20621;-90
2021/09/18 09:04:20;;;;;;;8.83;8.13;;;16.50;99.90;;;;;;4995984;28;21135;-89
2021/09/18 09:07:24;;;;;;;8.37;7.77;;;16.80;99.90;;;;;;4984788;28;20644;-89
2021/09/18 09:13:29;;;;;;;8.20;7.60;;;17.70;99.90;;;;;;4944720;28;20642;-90
2021/09/18 09:16:22;;;;;;;8.17;7.27;;;17.60;99.90;;;;;;5001838;28;21220;-88
2021/09/18 09:19:25;;;;;;;6.47;5.97;;;17.90;99.90;;;;;;4980826;28;20632;-90
2021/09/18 09:22:03;;;;;;;6.80;6.30;;;18.00;99.90;;;;;;4935040;28;21095;-90
2021/09/18 09:25:09;;;;;;;7.13;6.60;;;18.10;99.90;;;;;;4936691;28;21171;-90
2021/09/18 09:27:50;;;;;;;6.83;6.30;;;18.40;99.90;;;;;;4954743;28;20995;-90
2021/09/18 09:30:35;;;;;;;6.20;5.80;;;18.70;99.90;;;;;;4994035;28;20641;-90
2021/09/18 09:33:17;;;;;;;7.37;6.77;;;18.90;99.90;;;;;;4986575;28;20639;-89
2021/09/18 09:38:57;;;;;;;5.57;5.13;;;19.30;99.90;;;;;;4961530;28;20682;-89
2021/09/18 14:43:09;;;;;;;3.00;2.80;;;28.90;65.30;;;;;;4773969;29;20651;-93
2021/09/18 15:34:24;;;;;;;3.20;3.00;;;28.60;64.70;;;;;;4851983;29;21259;-94
2021/09/18 15:40:33;;;;;;;3.10;2.90;;;29.20;64.40;;;;;;4818899;29;21241;-91
2021/09/18 15:43:00;;;;;;;3.10;2.90;;;29.30;62.80;;;;;;4850486;29;21267;-90
2021/09/18 15:45:29;;;;;;;3.50;3.20;;;28.80;65.70;;;;;;4849590;29;20647;-92
2021/09/18 15:47:56;;;;;;;3.33;3.10;;;28.80;63.80;;;;;;4855023;29;20730;-92
2021/09/18 15:50:27;;;;;;;3.20;3.00;;;28.30;65.20;;;;;;4841253;29;20950;-92
2021/09/18 15:52:54;;;;;;;3.10;2.90;;;28.60;64.20;;;;;;4847748;29;20757;-91
2021/09/18 15:55:21;;;;;;;3.10;2.87;;;28.50;64.80;;;;;;4850912;29;20713;-92
2021/09/18 15:57:48;;;;;;;3.23;3.03;;;28.50;62.90;;;;;;4849565;29;20638;-91
2021/09/18 16:00:15;;;;;;;3.20;3.00;;;28.80;63.20;;;;;;4851620;29;20627;-91
2021/09/18 16:02:44;;;;;;;3.60;3.30;;;28.60;62.00;;;;;;4846103;29;20690;-91
2021/09/18 16:05:11;;;;;;;2.90;2.70;;;28.60;63.70;;;;;;4854748;29;20996;-91
2021/09/18 16:07:41;;;;;;;3.37;3.17;;;28.80;64.00;;;;;;4854836;29;20678;-91
2021/09/18 16:10:22;;;;;;;3.27;3.07;;;28.60;65.40;;;;;;4848807;29;20682;-90
2021/09/18 16:12:56;;;;;;;2.63;2.53;;;28.20;64.70;;;;;;4849766;29;20685;-91
2021/09/18 16:15:33;;;;;;;3.80;3.50;;;28.30;65.80;;;;;;4847405;29;20650;-91
2021/09/18 16:18:07;;;;;;;3.73;3.43;;;27.80;62.70;;;;;;4851679;29;20626;-91
2021/09/18 16:20:38;;;;;;;3.50;3.30;;;27.20;63.50;;;;;;4844232;29;20703;-91
2021/09/18 16:23:11;;;;;;;3.67;3.23;;;27.40;64.80;;;;;;4847834;29;20769;-91
2021/09/18 16:25:39;;;;;;;3.90;3.67;;;27.50;65.30;;;;;;4848104;29;20651;-92
2021/09/18 16:28:07;;;;;;;3.60;3.37;;;27.10;65.20;;;;;;4850466;29;21223;-91
2021/09/18 16:30:38;;;;;;;3.50;3.30;;;27.30;65.30;;;;;;4850315;29;21013;-92
2021/09/18 16:33:08;;;;;;;4.47;3.50;;;27.00;64.40;;;;;;4851215;29;20792;-91
2021/09/18 16:35:37;;;;;;;2.87;2.67;;;27.10;66.50;;;;;;4848742;29;20647;-92
2021/09/18 16:38:04;;;;;;;2.90;2.60;;;26.70;63.60;;;;;;4853139;29;20668;-92
2021/09/18 16:40:33;;;;;;;3.17;2.90;;;26.80;66.70;;;;;;4852594;29;20738;-91
2021/09/18 16:43:00;;;;;;;4.93;3.40;;;26.60;65.50;;;;;;4850518;29;20743;-92
2021/09/18 16:45:31;;;;;;;6.03;4.80;;;26.80;68.10;;;;;;4850823;29;20642;-91
2021/09/18 16:48:02;;;;;;;4.17;3.83;;;26.70;71.70;;;;;;4866151;29;20595;-91
2021/09/18 16:50:30;;;;;;;25.50;17.93;;;26.30;72.90;;;;;;4868386;29;21542;-91
2021/09/18 16:52:56;;;;;;;9.43;8.73;;;25.10;79.50;;;;;;4876331;29;20670;-90
2021/09/18 16:55:23;;;;;;;6.90;6.50;;;24.00;90.50;;;;;;4866433;29;20631;-92
2021/09/18 16:57:52;;;;;;;7.90;6.20;;;23.20;94.40;;;;;;4855933;29;20643;-91
2021/09/18 17:00:19;;;;;;;7.40;6.87;;;22.40;99.90;;;;;;4847212;29;20635;-91
2021/09/18 17:02:46;;;;;;;6.67;6.07;;;21.80;99.90;;;;;;4848427;29;20658;-91
2021/09/18 17:05:13;;;;;;;8.47;6.00;;;21.30;99.90;;;;;;4851475;29;20671;-91
2021/09/18 17:07:40;;;;;;;6.40;5.10;;;21.00;99.90;;;;;;4854593;29;20635;-92
2021/09/18 17:10:09;;;;;;;6.23;5.73;;;20.70;99.90;;;;;;4858191;29;21237;-92
2021/09/18 17:12:36;;;;;;;7.50;5.20;;;20.40;99.90;;;;;;4864200;29;20671;-91
2021/09/18 17:15:07;;;;;;;6.07;5.50;;;20.00;99.90;;;;;;4865600;29;21016;-91
2021/09/18 17:17:34;;;;;;;4.97;4.40;;;19.70;99.90;;;;;;4858105;29;20642;-91
2021/09/18 17:20:01;;;;;;;4.60;4.20;;;19.50;99.90;;;;;;4862658;29;20709;-91
2021/09/18 17:22:28;;;;;;;4.80;4.40;;;19.30;99.90;;;;;;4859223;29;20705;-92
2021/09/18 17:24:59;;;;;;;4.73;4.33;;;19.10;99.90;;;;;;4853791;29;20652;-92
2021/09/18 17:27:26;;;;;;;4.40;3.60;;;18.90;99.90;;;;;;4858181;29;20638;-92
2021/09/18 17:29:53;;;;;;;4.33;3.93;;;18.60;99.90;;;;;;4848514;29;20674;-92
2021/09/18 17:32:21;;;;;;;5.90;3.37;;;18.40;99.90;;;;;;4851429;29;20687;-92
2021/09/18 17:34:51;;;;;;;4.33;4.03;;;18.30;99.90;;;;;;4849858;29;21134;-91
2021/09/18 17:37:19;;;;;;;4.47;4.07;;;18.20;99.90;;;;;;4855291;29;20631;-92
2021/09/18 17:39:45;;;;;;;4.77;4.47;;;18.10;99.90;;;;;;4861730;29;20622;-91
2021/09/18 17:42:12;;;;;;;4.70;4.40;;;18.00;99.90;;;;;;4855958;29;20808;-91
2021/09/18 17:44:39;;;;;;;4.60;4.30;;;17.90;99.90;;;;;;4853559;29;20666;-91
2021/09/18 17:47:06;;;;;;;4.73;4.20;;;17.80;99.90;;;;;;4852412;29;21066;-92
2021/09/18 17:49:35;;;;;;;4.30;4.00;;;17.70;99.90;;;;;;4853063;29;20676;-92
2021/09/18 17:52:02;;;;;;;4.83;4.43;;;17.50;99.90;;;;;;4854322;29;20673;-92
2021/09/18 17:54:30;;;;;;;6.20;5.70;;;17.40;99.90;;;;;;4858098;29;20682;-91
2021/09/18 17:56:57;;;;;;;5.50;5.20;;;17.20;99.90;;;;;;4853482;29;21068;-91
2021/09/18 17:59:24;;;;;;;4.70;4.30;;;17.20;99.90;;;;;;4854028;29;20729;-91
2021/09/18 18:01:51;;;;;;;4.90;4.60;;;17.00;99.90;;;;;;4850916;29;20665;-92
2021/09/18 18:04:20;;;;;;;5.50;5.20;;;17.00;99.90;;;;;;4852931;29;20647;-91
2021/09/18 18:06:49;;;;;;;5.10;4.30;;;17.00;99.90;;;;;;4850018;29;20690;-91
2021/09/18 18:09:15;;;;;;;5.07;4.77;;;16.90;99.90;;;;;;4854903;29;20698;-92
2021/09/18 18:11:42;;;;;;;5.50;5.00;;;16.70;99.90;;;;;;4855556;29;20642;-91
2021/09/18 18:14:09;;;;;;;5.50;5.10;;;16.70;99.90;;;;;;4856217;29;20811;-91
2021/09/18 18:16:36;;;;;;;5.53;5.13;;;16.60;99.90;;;;;;4846414;29;20626;-92
2021/09/18 18:19:03;;;;;;;6.33;5.83;;;16.40;99.90;;;;;;4859492;29;20698;-91
2021/09/18 18:21:30;;;;;;;5.87;5.47;;;16.30;99.90;;;;;;4849384;29;20639;-92
2021/09/18 18:24:02;;;;;;;5.30;5.00;;;16.20;99.90;;;;;;4850580;29;20687;-94
2021/09/18 18:26:29;;;;;;;6.50;6.00;;;16.20;99.90;;;;;;4857798;29;20633;-93
2021/09/18 18:28:56;;;;;;;6.47;5.97;;;16.20;99.90;;;;;;4863543;29;20643;-93
2021/09/18 18:31:23;;;;;;;6.37;5.93;;;16.10;99.90;;;;;;4864904;29;20741;-95
2021/09/18 18:33:50;;;;;;;6.23;5.73;;;16.10;99.90;;;;;;4867046;29;20765;-96
2021/09/18 18:36:20;;;;;;;5.77;5.43;;;16.00;99.90;;;;;;5032909;23;20689;-96
2021/09/18 18:38:50;;;;;;;5.80;5.40;;;15.90;99.90;;;;;;4872065;29;20663;-96
2021/09/18 18:41:18;;;;;;;7.10;6.17;;;15.80;99.90;;;;;;4868758;29;20728;-96
2021/09/18 18:43:49;;;;;;;6.97;6.47;;;15.70;99.90;;;;;;4866090;29;20637;-96
2021/09/18 18:46:21;;;;;;;6.33;5.70;;;15.70;99.90;;;;;;4868633;29;21252;-96
2021/09/18 18:48:54;;;;;;;6.50;6.03;;;15.60;99.90;;;;;;4866996;29;20672;-96
2021/09/18 18:54:30;;;;;;;7.50;6.90;;;15.60;99.90;;;;;;4883358;29;20611;-96
2021/09/18 19:03:43;;;;;;;7.67;7.07;;;15.50;99.90;;;;;;4866313;29;20624;-96
2021/09/18 19:06:21;;;;;;;8.10;7.50;;;15.60;99.90;;;;;;5119343;23;20671;-96
2021/09/18 19:08:58;;;;;;;8.23;7.47;;;15.60;99.90;;;;;;4894988;29;20980;-96
2021/09/18 19:11:26;;;;;;;8.17;7.57;;;15.60;99.90;;;;;;4884109;29;20674;-96
2021/09/18 19:13:59;;;;;;;9.47;8.73;;;15.60;99.90;;;;;;4883415;29;20630;-96
2021/09/18 19:16:28;;;;;;;8.90;7.63;;;15.70;99.90;;;;;;4873897;29;20681;-96
2021/09/18 19:18:55;;;;;;;8.90;8.10;;;15.60;99.90;;;;;;4884971;29;21024;-96
2021/09/18 19:21:23;;;;;;;8.13;7.53;;;15.70;99.90;;;;;;4887090;29;20638;-96
2021/09/18 19:23:53;;;;;;;7.90;7.30;;;15.60;99.90;;;;;;4896009;29;20718;-96
2021/09/18 19:26:20;;;;;;;9.47;8.30;;;15.50;99.90;;;;;;4895820;29;20665;-95
2021/09/18 19:28:48;;;;;;;8.47;7.60;;;15.50;99.90;;;;;;4881056;29;21056;-95
2021/09/18 19:31:17;;;;;;;11.90;10.73;;;15.40;99.90;;;;;;4892907;29;20789;-96
2021/09/18 19:33:44;;;;;;;10.80;9.80;;;15.30;99.90;;;;;;4876881;29;21229;-94
2021/09/18 19:36:11;;;;;;;11.83;8.73;;;15.20;99.90;;;;;;4877154;29;20717;-95
2021/09/18 19:41:45;;;;;;;9.10;8.40;;;15.00;99.90;;;;;;4887161;29;20632;-96
2021/09/18 19:44:13;;;;;;;9.93;9.10;;;15.10;99.90;;;;;;4891389;29;20634;-95
2021/09/18 19:46:44;;;;;;;9.40;8.70;;;15.10;99.90;;;;;;4883058;29;20673;-95
2021/09/18 19:49:12;;;;;;;11.23;10.43;;;15.20;99.90;;;;;;4884376;29;20630;-94
2021/09/18 19:51:39;;;;;;;10.30;9.50;;;15.20;99.90;;;;;;4874602;29;20739;-93
2021/09/18 19:54:08;;;;;;;11.30;10.40;;;15.30;99.90;;;;;;4878903;29;20742;-95
2021/09/18 19:56:37;;;;;;;10.27;9.57;;;15.40;99.90;;;;;;4879065;29;20697;-95
2021/09/18 19:59:04;;;;;;;10.10;9.30;;;15.50;99.90;;;;;;4875426;29;20648;-94
2021/09/18 20:01:35;;;;;;;10.93;10.03;;;15.50;99.90;;;;;;4883931;29;20646;-94
2021/09/18 20:04:12;;;;;;;9.90;9.20;;;15.70;99.90;;;;;;4888758;29;20650;-95
2021/09/18 20:06:53;;;;;;;9.97;9.20;;;15.80;99.90;;;;;;4895236;29;20733;-96
2021/09/18 20:09:20;;;;;;;9.23;8.53;;;15.80;99.90;;;;;;4884452;29;20728;-94
2021/09/18 20:11:47;;;;;;;10.63;9.53;;;15.80;99.90;;;;;;4878248;29;20650;-94
2021/09/18 20:14:16;;;;;;;10.80;9.60;;;15.70;99.90;;;;;;4906491;29;20655;-96
2021/09/18 20:16:43;;;;;;;10.17;9.37;;;15.60;99.90;;;;;;4904846;29;20677;-94
2021/09/18 20:19:11;;;;;;;9.57;8.93;;;15.50;99.90;;;;;;4910114;29;20637;-95
2021/09/18 20:21:39;;;;;;;10.53;9.60;;;15.60;99.90;;;;;;4876496;29;20698;-95
2021/09/18 20:24:06;;;;;;;10.50;9.80;;;15.60;99.90;;;;;;4875397;29;21008;-94
2021/09/18 20:26:33;;;;;;;10.17;9.37;;;15.60;99.90;;;;;;4880180;29;20707;-96
2021/09/18 20:29:00;;;;;;;10.70;9.93;;;15.70;99.90;;;;;;4890027;29;20696;-95
2021/09/18 20:31:27;;;;;;;10.57;9.60;;;15.70;99.90;;;;;;4872821;29;20679;-94
2021/09/18 20:34:00;;;;;;;11.33;10.37;;;15.70;99.90;;;;;;4872555;29;20645;-93
2021/09/18 20:36:28;;;;;;;10.70;10.00;;;15.70;99.90;;;;;;4879625;29;20673;-94
2021/09/18 20:38:56;;;;;;;10.70;10.00;;;15.50;99.90;;;;;;4881779;29;20644;-93
2021/09/18 20:41:22;;;;;;;10.87;10.13;;;15.50;99.90;;;;;;4882956;29;21156;-93
2021/09/18 20:43:50;;;;;;;11.80;10.60;;;15.40;99.90;;;;;;4875072;29;20649;-93
2021/09/18 20:46:17;;;;;;;12.00;11.00;;;15.30;99.90;;;;;;4877355;29;20677;-94
2021/09/18 20:48:46;;;;;;;13.23;12.17;;;15.20;99.90;;;;;;4876340;29;20760;-93
2021/09/18 20:51:12;;;;;;;13.53;12.33;;;15.10;99.90;;;;;;4876779;29;21264;-94
2021/09/18 20:53:46;;;;;;;11.77;10.83;;;15.00;99.90;;;;;;4877964;29;20643;-95
2021/09/18 20:56:13;;;;;;;12.73;11.73;;;14.90;99.90;;;;;;4877284;29;20750;-96
2021/09/18 20:58:41;;;;;;;12.00;11.20;;;14.80;99.90;;;;;;4878197;29;20650;-95
2021/09/18 21:01:18;;;;;;;12.00;11.10;;;14.80;99.90;;;;;;4884215;29;20646;-96
2021/09/18 21:06:40;;;;;;;11.10;10.40;;;14.70;99.90;;;;;;4900920;29;20668;-96
2021/09/18 21:09:12;;;;;;;12.30;11.40;;;14.70;99.90;;;;;;4896368;29;20665;-96
2021/09/18 21:11:41;;;;;;;12.10;11.10;;;14.60;99.90;;;;;;4891538;29;20669;-96
2021/09/18 21:14:10;;;;;;;12.40;11.40;;;14.60;99.90;;;;;;4894078;29;20638;-95
2021/09/18 21:16:38;;;;;;;11.30;10.40;;;14.50;99.90;;;;;;4895210;29;21092;-96
2021/09/18 21:19:06;;;;;;;11.00;10.00;;;14.50;99.90;;;;;;4895451;29;20656;-96
2021/09/18 21:21:34;;;;;;;11.73;10.60;;;14.30;99.90;;;;;;4889828;29;20638;-96
2021/09/18 21:24:04;;;;;;;11.70;10.80;;;14.20;99.90;;;;;;4889124;29;20634;-96
2021/09/18 21:26:39;;;;;;;11.30;10.43;;;14.30;99.90;;;;;;4895775;29;20673;-96
2021/09/18 21:29:07;;;;;;;10.97;10.13;;;14.20;99.90;;;;;;4894003;29;20624;-96
2021/09/18 21:31:34;;;;;;;12.70;11.63;;;14.10;99.90;;;;;;4896184;29;20661;-96
2021/09/18 21:34:02;;;;;;;10.80;10.10;;;14.00;99.90;;;;;;4886259;29;20740;-96
2021/09/18 21:36:29;;;;;;;11.33;10.47;;;14.00;99.90;;;;;;4887407;29;20662;-96
2021/09/18 21:38:57;;;;;;;11.40;10.40;;;14.00;99.90;;;;;;4885856;29;20672;-96
2021/09/18 21:41:24;;;;;;;10.20;9.40;;;13.90;99.90;;;;;;4886619;29;20638;-96
2021/09/18 21:43:53;;;;;;;9.87;9.20;;;13.80;99.90;;;;;;4879664;29;20738;-95
2021/09/18 21:46:20;;;;;;;11.60;10.60;;;13.80;99.90;;;;;;4883328;29;20672;-93
2021/09/18 21:48:47;;;;;;;12.63;11.73;;;13.70;99.90;;;;;;4878566;29;20646;-96
2021/09/18 21:51:14;;;;;;;12.27;11.37;;;13.60;99.90;;;;;;4876840;29;20666;-95
2021/09/18 21:53:41;;;;;;;11.10;10.30;;;13.60;99.90;;;;;;4880516;29;21181;-96
2021/09/18 21:56:08;;;;;;;11.03;10.27;;;13.50;99.90;;;;;;4884756;29;20680;-94
2021/09/18 21:58:35;;;;;;;11.70;10.80;;;13.50;99.90;;;;;;4883080;29;20673;-95
2021/09/18 22:01:23;;;;;;;9.87;9.23;;;13.40;99.90;;;;;;4899881;29;20662;-96
2021/09/18 22:03:51;;;;;;;10.67;9.67;;;13.40;99.90;;;;;;4887065;29;20728;-95
2021/09/18 22:06:21;;;;;;;11.90;11.00;;;13.40;99.90;;;;;;4879809;29;20744;-96
2021/09/18 22:08:49;;;;;;;12.13;11.17;;;13.40;99.90;;;;;;4880177;29;20709;-95
2021/09/18 22:11:18;;;;;;;12.10;11.10;;;13.30;99.90;;;;;;4875096;29;20702;-95
2021/09/18 22:13:45;;;;;;;11.63;10.83;;;13.20;99.90;;;;;;4878538;29;20713;-95
2021/09/18 22:16:13;;;;;;;11.60;10.80;;;13.20;99.90;;;;;;4880234;29;20641;-94
2021/09/18 22:18:43;;;;;;;11.00;10.20;;;13.10;99.90;;;;;;4891284;29;20855;-95
2021/09/18 22:21:11;;;;;;;12.30;11.43;;;13.10;99.90;;;;;;4884469;29;20668;-95
2021/09/18 22:23:39;;;;;;;12.57;11.67;;;13.10;99.90;;;;;;4874781;29;20656;-95
2021/09/18 22:26:07;;;;;;;11.33;10.43;;;13.10;99.90;;;;;;4878857;29;20658;-94
2021/09/18 22:28:37;;;;;;;10.40;9.70;;;13.10;99.90;;;;;;4870124;29;20626;-95
2021/09/18 22:31:04;;;;;;;13.77;9.70;;;13.10;99.90;;;;;;4881597;29;20713;-95
2021/09/18 22:33:31;;;;;;;11.97;10.97;;;13.10;99.90;;;;;;4882855;29;21010;-95
2021/09/18 22:36:00;;;;;;;10.93;10.23;;;13.00;99.90;;;;;;4877254;29;20979;-94
2021/09/18 22:38:27;;;;;;;11.43;10.40;;;13.00;99.90;;;;;;4876295;29;20657;-95
2021/09/18 22:40:54;;;;;;;11.53;10.53;;;12.90;99.90;;;;;;4878068;29;21514;-95
2021/09/18 22:43:21;;;;;;;11.17;10.40;;;12.90;99.90;;;;;;4882108;29;20663;-93
2021/09/18 22:45:48;;;;;;;10.13;9.20;;;13.00;99.90;;;;;;4879865;29;20642;-94
2021/09/18 22:48:15;;;;;;;12.00;11.00;;;12.90;99.90;;;;;;4874051;29;20642;-94
2021/09/18 22:50:42;;;;;;;11.27;10.47;;;12.80;99.90;;;;;;4875588;29;20685;-93
2021/09/18 22:53:14;;;;;;;10.90;10.10;;;12.80;99.90;;;;;;4875698;29;20641;-94
2021/09/18 22:55:43;;;;;;;10.97;10.17;;;12.90;99.90;;;;;;4873945;29;20655;-94
2021/09/18 22:58:10;;;;;;;9.67;9.07;;;12.90;99.90;;;;;;4875302;29;20646;-94
2021/09/18 23:00:38;;;;;;;10.73;9.67;;;12.80;99.90;;;;;;4882341;29;20662;-93
2021/09/18 23:03:08;;;;;;;10.60;9.70;;;12.80;99.90;;;;;;4873923;29;20663;-94
2021/09/18 23:05:35;;;;;;;10.07;9.40;;;12.80;99.90;;;;;;4876131;29;20642;-94
2021/09/18 23:08:05;;;;;;;9.20;8.50;;;12.80;99.90;;;;;;4874924;29;21054;-94
2021/09/18 23:10:39;;;;;;;10.03;9.33;;;12.80;99.90;;;;;;4879650;29;20666;-96
2021/09/18 23:13:08;;;;;;;9.70;8.80;;;12.70;99.90;;;;;;4880676;29;20748;-95
2021/09/18 23:15:35;;;;;;;9.33;8.73;;;12.70;99.90;;;;;;4883287;29;20744;-91
2021/09/18 23:18:03;;;;;;;10.10;9.30;;;12.70;99.90;;;;;;4876151;29;20638;-94
2021/09/18 23:20:33;;;;;;;9.53;8.83;;;12.80;99.90;;;;;;4901107;29;20975;-96
2021/09/18 23:23:09;;;;;;;8.57;7.87;;;12.80;99.90;;;;;;4885915;29;21191;-96
2021/09/18 23:25:40;;;;;;;8.23;7.73;;;12.90;99.90;;;;;;4882811;29;20737;-96
2021/09/18 23:28:09;;;;;;;9.10;8.47;;;12.80;99.90;;;;;;4888193;29;20637;-96
2021/09/18 23:30:37;;;;;;;8.60;7.90;;;12.80;99.90;;;;;;4877933;29;20768;-96
2021/09/18 23:33:09;;;;;;;9.47;8.70;;;12.80;99.90;;;;;;4887988;29;20634;-96
2021/09/18 23:35:36;;;;;;;8.23;7.60;;;12.80;99.90;;;;;;4896094;29;20706;-96
2021/09/18 23:38:08;;;;;;;8.90;8.20;;;12.70;99.90;;;;;;4880403;29;20666;-94
2021/09/18 23:40:35;;;;;;;8.53;7.83;;;12.70;99.90;;;;;;4880451;29;21262;-94
2021/09/18 23:43:03;;;;;;;8.40;7.80;;;12.60;99.90;;;;;;4876043;29;20644;-93
2021/09/18 23:45:32;;;;;;;8.10;7.50;;;12.60;99.90;;;;;;4872438;29;20660;-93
2021/09/18 23:47:59;;;;;;;8.23;7.63;;;12.60;99.90;;;;;;4879987;29;20668;-94
2021/09/18 23:50:26;;;;;;;9.50;8.20;;;12.50;99.90;;;;;;4881582;29;20676;-96